createdAt,value
2016-05-19T00:00:01.585Z,13.71
2016-05-19T00:01:01.573Z,13.77
2016-05-19T00:02:01.559Z,13.69
2016-05-19T00:03:01.531Z,13.73
2016-05-19T00:04:01.503Z,13.73
2016-05-19T00:05:01.489Z,13.71
2016-05-19T00:06:01.461Z,13.7
2016-05-19T00:07:01.447Z,13.69
2016-05-19T00:08:01.278Z,13.69
2016-05-19T00:09:01.250Z,13.69
2016-05-19T00:10:01.222Z,13.69
2016-05-19T00:11:01.225Z,13.69
2016-05-19T00:12:01.336Z,13.61
2016-05-19T00:13:01.308Z,13.63
2016-05-19T00:14:01.295Z,13.71
2016-05-19T00:15:01.283Z,13.7
2016-05-19T00:16:01.253Z,13.63
2016-05-19T00:17:00.913Z,13.71
2016-05-19T00:18:01.228Z,13.69
2016-05-19T00:19:01.183Z,13.73
2016-05-19T00:20:01.014Z,13.67
2016-05-19T00:21:01.157Z,13.63
2016-05-19T00:22:01.129Z,13.69
2016-05-19T00:23:01.147Z,13.61
2016-05-19T00:24:01.087Z,13.69
2016-05-19T00:25:01.060Z,13.59
2016-05-19T00:26:01.030Z,13.56
2016-05-19T00:27:01.017Z,13.58
2016-05-19T00:28:00.832Z,13.62
2016-05-19T00:29:00.976Z,13.54
2016-05-19T00:30:00.948Z,13.54
2016-05-19T00:31:00.918Z,13.55
2016-05-19T00:32:00.906Z,13.56
2016-05-19T00:33:00.892Z,13.58
2016-05-19T00:34:00.864Z,13.56
2016-05-19T00:35:00.679Z,13.51
2016-05-19T00:36:00.682Z,13.47
2016-05-19T00:37:00.795Z,13.4
2016-05-19T00:38:00.781Z,13.54
2016-05-19T00:39:00.768Z,13.43
2016-05-19T00:40:00.725Z,13.38
2016-05-19T00:41:00.711Z,13.49
2016-05-19T00:42:00.683Z,13.46
2016-05-19T00:43:00.654Z,13.37
2016-05-19T00:44:00.641Z,13.3
2016-05-19T00:45:00.472Z,13.33
2016-05-19T00:46:00.600Z,13.22
2016-05-19T00:47:00.586Z,13.29
2016-05-19T00:48:00.542Z,13.15
2016-05-19T00:49:00.530Z,13.2
2016-05-19T00:50:00.516Z,13.17
2016-05-19T00:51:00.488Z,13.15
2016-05-19T00:52:00.475Z,13.12
2016-05-19T00:53:00.290Z,13.14
2016-05-19T00:54:00.277Z,13.14
2016-05-19T00:55:00.421Z,13.07
2016-05-19T00:56:00.377Z,13.04
2016-05-19T00:57:00.380Z,13.06
2016-05-19T00:58:00.351Z,13.07
2016-05-19T00:59:00.321Z,13.03
2016-05-19T01:00:00.138Z,13.03
2016-05-19T01:01:00.265Z,12.93
2016-05-19T01:02:00.111Z,12.89
2016-05-19T01:03:00.223Z,12.93
2016-05-19T01:04:00.210Z,12.88
2016-05-19T01:05:00.182Z,12.87
2016-05-19T01:06:00.170Z,12.81
2016-05-19T01:07:00.140Z,12.75
2016-05-19T01:08:00.112Z,12.81
2016-05-19T01:09:00.099Z,12.74
2016-05-19T01:10:00.070Z,12.7
2016-05-19T01:11:00.058Z,12.77
2016-05-19T01:12:00.028Z,12.69
2016-05-19T01:12:59.844Z,12.6
2016-05-19T01:13:59.987Z,12.62
2016-05-19T01:14:59.959Z,12.64
2016-05-19T01:15:59.789Z,12.7
2016-05-19T01:16:59.917Z,12.7
2016-05-19T01:17:59.920Z,12.62
2016-05-19T01:18:59.876Z,12.63
2016-05-19T01:19:59.691Z,12.79
2016-05-19T01:20:59.834Z,12.69
2016-05-19T01:21:59.822Z,12.59
2016-05-19T01:22:59.809Z,12.71
2016-05-19T01:23:59.905Z,12.81
2016-05-19T01:24:59.751Z,12.64
2016-05-19T01:25:59.723Z,12.64
2016-05-19T01:26:59.694Z,12.62
2016-05-19T01:27:59.682Z,12.69
2016-05-19T01:28:59.496Z,12.64
2016-05-19T01:29:59.484Z,12.7
2016-05-19T01:30:59.612Z,12.59
2016-05-19T01:31:59.582Z,12.64
2016-05-19T01:32:59.570Z,12.69
2016-05-19T01:33:59.541Z,12.74
2016-05-19T01:34:59.528Z,12.74
2016-05-19T01:35:59.343Z,12.7
2016-05-19T01:36:59.471Z,12.78
2016-05-19T01:37:59.458Z,12.78
2016-05-19T01:38:59.696Z,12.75
2016-05-19T01:39:59.416Z,12.74
2016-05-19T01:40:59.247Z,12.77
2016-05-19T01:41:59.359Z,12.77
2016-05-19T01:42:59.347Z,12.85
2016-05-19T01:43:59.318Z,12.79
2016-05-19T01:44:59.306Z,12.79
2016-05-19T01:45:59.277Z,12.85
2016-05-19T01:46:59.248Z,12.93
2016-05-19T01:47:59.219Z,12.93
2016-05-19T01:48:59.222Z,12.92
2016-05-19T01:49:59.209Z,12.89
2016-05-19T01:50:59.009Z,12.88
2016-05-19T01:51:58.980Z,12.79
2016-05-19T01:52:59.139Z,12.88
2016-05-19T01:53:58.955Z,12.89
2016-05-19T01:54:59.082Z,12.95
2016-05-19T01:55:59.069Z,12.87
2016-05-19T01:56:59.041Z,12.93
2016-05-19T01:57:58.855Z,12.93
2016-05-19T01:58:58.843Z,12.93
2016-05-19T01:59:58.971Z,12.87
2016-05-19T02:00:58.957Z,12.87
2016-05-19T02:01:58.929Z,12.87
2016-05-19T02:02:58.884Z,12.93
2016-05-19T02:03:58.871Z,12.89
2016-05-19T02:04:58.860Z,12.81
2016-05-19T02:05:58.831Z,12.77
2016-05-19T02:06:58.817Z,12.79
2016-05-19T02:07:58.632Z,12.77
2016-05-19T02:08:58.620Z,12.82
2016-05-19T02:09:58.451Z,12.7
2016-05-19T02:10:58.720Z,12.71
2016-05-19T02:11:58.722Z,12.69
2016-05-19T02:12:58.521Z,12.64
2016-05-19T02:13:58.509Z,12.67
2016-05-19T02:14:58.651Z,12.71
2016-05-19T02:15:58.623Z,12.63
2016-05-19T02:16:58.594Z,12.64
2016-05-19T02:17:58.566Z,12.52
2016-05-19T02:18:58.553Z,12.48
2016-05-19T02:19:58.539Z,12.44
2016-05-19T02:20:58.496Z,12.48
2016-05-19T02:21:58.483Z,12.31
2016-05-19T02:22:58.469Z,12.31
2016-05-19T02:23:58.754Z,12.42
2016-05-19T02:24:58.405Z,12.24
2016-05-19T02:25:58.392Z,12.31
2016-05-19T02:26:58.222Z,12.23
2016-05-19T02:27:58.350Z,12.13
2016-05-19T02:28:58.322Z,12.15
2016-05-19T02:29:58.310Z,12.19
2016-05-19T02:30:58.280Z,12.21
2016-05-19T02:31:58.252Z,12.15
2016-05-19T02:32:58.238Z,12.12
2016-05-19T02:33:58.210Z,12.13
2016-05-19T02:34:58.213Z,12.05
2016-05-19T02:35:58.169Z,12.06
2016-05-19T02:36:58.156Z,11.99
2016-05-19T02:37:58.112Z,12.05
2016-05-19T02:38:58.084Z,12.06
2016-05-19T02:39:58.070Z,11.89
2016-05-19T02:40:58.101Z,11.87
2016-05-19T02:41:58.100Z,11.94
2016-05-19T02:42:58.130Z,11.82
2016-05-19T02:43:58.146Z,11.85
2016-05-19T02:44:58.177Z,11.85
2016-05-19T02:45:58.172Z,11.74
2016-05-19T02:46:58.004Z,11.77
2016-05-19T02:47:58.146Z,11.71
2016-05-19T02:48:58.149Z,11.72
2016-05-19T02:49:57.980Z,11.64
2016-05-19T02:50:57.959Z,11.72
2016-05-19T02:51:57.937Z,11.54
2016-05-19T02:52:58.118Z,11.56
2016-05-19T02:53:58.484Z,11.57
2016-05-19T02:54:58.072Z,11.53
2016-05-19T02:55:58.046Z,11.49
2016-05-19T02:56:58.020Z,11.46
2016-05-19T02:57:58.008Z,11.39
2016-05-19T02:58:57.967Z,11.44
2016-05-19T02:59:57.956Z,11.43
2016-05-19T03:00:57.944Z,11.31
2016-05-19T03:01:57.760Z,11.41
2016-05-19T03:02:57.888Z,11.35
2016-05-19T03:03:57.720Z,11.43
2016-05-19T03:04:57.848Z,11.43
2016-05-19T03:05:57.821Z,11.31
2016-05-19T03:06:57.808Z,11.35
2016-05-19T03:07:57.779Z,11.34
2016-05-19T03:08:57.752Z,11.31
2016-05-19T03:09:57.722Z,11.27
2016-05-19T03:10:57.725Z,11.29
2016-05-19T03:11:57.681Z,11.29
2016-05-19T03:12:57.669Z,11.31
2016-05-19T03:13:57.641Z,11.28
2016-05-19T03:14:57.612Z,11.31
2016-05-19T03:15:57.599Z,11.27
2016-05-19T03:16:57.414Z,11.24
2016-05-19T03:17:57.542Z,11.24
2016-05-19T03:18:57.513Z,11.21
2016-05-19T03:19:57.500Z,11.14
2016-05-19T03:20:57.488Z,11.14
2016-05-19T03:21:57.443Z,11.17
2016-05-19T03:22:57.430Z,11.14
2016-05-19T03:23:57.260Z,11.16
2016-05-19T03:24:57.388Z,11.13
2016-05-19T03:25:57.360Z,11.17
2016-05-19T03:26:57.331Z,11.13
2016-05-19T03:27:57.318Z,11.09
2016-05-19T03:28:57.290Z,11.09
2016-05-19T03:29:57.262Z,11.07
2016-05-19T03:30:57.248Z,11.06
2016-05-19T03:31:57.220Z,11.03
2016-05-19T03:32:57.207Z,11.03
2016-05-19T03:33:57.023Z,11.02
2016-05-19T03:34:56.994Z,11.03
2016-05-19T03:35:57.121Z,10.91
2016-05-19T03:36:56.953Z,10.89
2016-05-19T03:37:57.080Z,11.01
2016-05-19T03:38:57.253Z,10.92
2016-05-19T03:39:56.882Z,10.96
2016-05-19T03:40:57.009Z,10.96
2016-05-19T03:41:56.981Z,10.88
2016-05-19T03:42:56.952Z,10.88
2016-05-19T03:43:56.799Z,10.86
2016-05-19T03:44:56.911Z,10.84
2016-05-19T03:45:56.897Z,10.77
2016-05-19T03:46:56.869Z,10.8
2016-05-19T03:47:56.685Z,10.78
2016-05-19T03:48:56.828Z,10.8
2016-05-19T03:49:56.800Z,10.74
2016-05-19T03:50:56.771Z,10.77
2016-05-19T03:51:56.743Z,10.83
2016-05-19T03:52:56.730Z,10.92
2016-05-19T03:53:56.702Z,10.88
2016-05-19T03:54:56.688Z,10.78
2016-05-19T03:55:56.504Z,10.91
2016-05-19T03:56:56.646Z,10.89
2016-05-19T03:57:56.634Z,10.91
2016-05-19T03:58:56.590Z,10.86
2016-05-19T03:59:56.560Z,10.96
2016-05-19T04:00:56.548Z,10.96
2016-05-19T04:01:56.362Z,10.98
2016-05-19T04:02:56.506Z,11.02
2016-05-19T04:03:56.478Z,11.03
2016-05-19T04:04:56.449Z,11.1
2016-05-19T04:05:56.264Z,11.11
2016-05-19T04:06:56.392Z,11.27
2016-05-19T04:07:56.223Z,11.25
2016-05-19T04:08:56.601Z,11.38
2016-05-19T04:09:56.182Z,11.46
2016-05-19T04:10:56.309Z,11.52
2016-05-19T04:11:56.297Z,11.59
2016-05-19T04:12:56.253Z,11.74
2016-05-19T04:13:56.239Z,11.83
2016-05-19T04:14:56.210Z,11.89
2016-05-19T04:15:56.182Z,11.97
2016-05-19T04:16:56.185Z,12.04
2016-05-19T04:17:56.141Z,11.99
2016-05-19T04:18:56.127Z,12.06
2016-05-19T04:19:56.099Z,11.99
2016-05-19T04:20:56.085Z,11.96
2016-05-19T04:21:55.901Z,12.04
2016-05-19T04:22:55.888Z,12.01
2016-05-19T04:23:55.907Z,11.99
2016-05-19T04:24:55.988Z,12.05
2016-05-19T04:25:55.959Z,12.08
2016-05-19T04:26:55.790Z,12.06
2016-05-19T04:27:55.918Z,12.08
2016-05-19T04:28:55.905Z,12.05
2016-05-19T04:29:55.876Z,12.19
2016-05-19T04:30:55.848Z,12.06
2016-05-19T04:31:55.835Z,12.13
2016-05-19T04:32:55.790Z,12.09
2016-05-19T04:33:55.777Z,12.15
2016-05-19T04:34:55.764Z,12.16
2016-05-19T04:35:55.751Z,12.19
2016-05-19T04:36:55.707Z,12.23
2016-05-19T04:37:55.694Z,12.23
2016-05-19T04:38:55.698Z,12.19
2016-05-19T04:39:55.653Z,12.21
2016-05-19T04:40:55.624Z,12.34
2016-05-19T04:41:55.612Z,12.37
2016-05-19T04:42:55.583Z,12.44
2016-05-19T04:43:55.554Z,12.44
2016-05-19T04:44:55.541Z,12.54
2016-05-19T04:45:55.513Z,12.51
2016-05-19T04:46:55.343Z,12.56
2016-05-19T04:47:55.472Z,12.57
2016-05-19T04:48:55.442Z,12.62
2016-05-19T04:49:55.414Z,12.63
2016-05-19T04:50:55.402Z,12.6
2016-05-19T04:51:55.372Z,12.62
2016-05-19T04:52:55.203Z,12.63
2016-05-19T04:53:55.330Z,12.67
2016-05-19T04:54:55.319Z,12.7
2016-05-19T04:55:55.290Z,12.69
2016-05-19T04:56:55.260Z,12.7
2016-05-19T04:57:55.249Z,12.77
2016-05-19T04:58:55.219Z,12.71
2016-05-19T04:59:55.191Z,12.75
2016-05-19T05:00:55.179Z,12.82
2016-05-19T05:01:54.993Z,12.81
2016-05-19T05:02:55.137Z,12.88
2016-05-19T05:03:55.107Z,12.93
2016-05-19T05:04:55.095Z,12.89
2016-05-19T05:05:54.895Z,12.92
2016-05-19T05:06:55.054Z,12.92
2016-05-19T05:07:54.868Z,13
2016-05-19T05:08:55.215Z,13.03
2016-05-19T05:09:54.984Z,13
2016-05-19T05:10:54.955Z,13.03
2016-05-19T05:11:54.926Z,13.07
2016-05-19T05:12:54.914Z,13.11
2016-05-19T05:13:54.729Z,13.21
2016-05-19T05:14:54.872Z,13.2
2016-05-19T05:15:54.844Z,13.24
2016-05-19T05:16:54.815Z,13.22
2016-05-19T05:17:54.802Z,13.33
2016-05-19T05:18:54.773Z,13.38
2016-05-19T05:19:54.745Z,13.46
2016-05-19T05:20:54.575Z,13.46
2016-05-19T05:21:54.703Z,13.58
2016-05-19T05:22:54.690Z,13.55
2016-05-19T05:23:54.380Z,13.65
2016-05-19T05:24:54.650Z,13.7
2016-05-19T05:25:54.621Z,13.69
2016-05-19T05:26:54.435Z,13.73
2016-05-19T05:27:54.563Z,13.8
2016-05-19T05:28:54.582Z,13.8
2016-05-19T05:29:54.538Z,13.79
2016-05-19T05:30:54.509Z,13.94
2016-05-19T05:31:54.512Z,13.92
2016-05-19T05:32:54.468Z,13.98
2016-05-19T05:33:54.438Z,14.1
2016-05-19T05:34:54.426Z,14.07
2016-05-19T05:35:54.398Z,14.02
2016-05-19T05:36:54.384Z,14.01
2016-05-19T05:37:54.356Z,14.1
2016-05-19T05:38:54.515Z,14.12
2016-05-19T05:39:54.315Z,14.13
2016-05-19T05:40:54.129Z,14.01
2016-05-19T05:41:54.257Z,14.14
2016-05-19T05:42:54.088Z,14.13
2016-05-19T05:43:54.232Z,14.1
2016-05-19T05:44:54.047Z,14.2
2016-05-19T05:45:54.175Z,14.17
2016-05-19T05:46:54.161Z,14.09
2016-05-19T05:47:54.148Z,14.12
2016-05-19T05:48:54.119Z,14.13
2016-05-19T05:49:54.092Z,14.21
2016-05-19T05:50:54.078Z,14.21
2016-05-19T05:51:54.050Z,14.12
2016-05-19T05:52:54.053Z,14.14
2016-05-19T05:53:53.852Z,14.14
2016-05-19T05:54:53.995Z,14.27
2016-05-19T05:55:53.967Z,14.21
2016-05-19T05:56:53.954Z,14.31
2016-05-19T05:57:53.925Z,14.29
2016-05-19T05:58:53.740Z,14.37
2016-05-19T05:59:53.727Z,14.28
2016-05-19T06:00:53.855Z,14.46
2016-05-19T06:01:53.843Z,14.47
2016-05-19T06:02:53.658Z,14.5
2016-05-19T06:03:53.785Z,14.57
2016-05-19T06:04:53.772Z,14.65
2016-05-19T06:05:53.744Z,14.69
2016-05-19T06:06:53.574Z,14.68
2016-05-19T06:07:53.702Z,14.69
2016-05-19T06:08:53.845Z,14.75
2016-05-19T06:09:53.660Z,14.64
2016-05-19T06:10:53.492Z,14.54
2016-05-19T06:11:53.634Z,14.64
2016-05-19T06:12:53.450Z,14.62
2016-05-19T06:13:53.421Z,14.65
2016-05-19T06:14:53.409Z,14.61
2016-05-19T06:15:53.537Z,14.5
2016-05-19T06:16:53.523Z,14.5
2016-05-19T06:17:53.495Z,14.53
2016-05-19T06:18:53.481Z,14.53
2016-05-19T06:19:53.453Z,14.61
2016-05-19T06:20:53.439Z,14.57
2016-05-19T06:21:53.412Z,14.56
2016-05-19T06:22:53.227Z,14.56
2016-05-19T06:23:53.730Z,14.61
2016-05-19T06:24:53.342Z,14.54
2016-05-19T06:25:53.329Z,14.6
2016-05-19T06:26:53.300Z,14.67
2016-05-19T06:27:53.271Z,14.64
2016-05-19T06:28:53.258Z,14.64
2016-05-19T06:29:53.261Z,14.53
2016-05-19T06:30:53.216Z,14.6
2016-05-19T06:31:53.205Z,14.61
2016-05-19T06:32:53.035Z,14.52
2016-05-19T06:33:53.163Z,14.57
2016-05-19T06:34:53.135Z,14.49
2016-05-19T06:35:53.105Z,14.52
2016-05-19T06:36:52.952Z,14.5
2016-05-19T06:37:53.064Z,14.46
2016-05-19T06:38:53.379Z,14.54
2016-05-19T06:39:52.882Z,14.56
2016-05-19T06:40:53.010Z,14.56
2016-05-19T06:41:52.981Z,14.61
2016-05-19T06:42:52.968Z,14.61
2016-05-19T06:43:52.799Z,14.57
2016-05-19T06:44:52.771Z,14.52
2016-05-19T06:45:52.898Z,14.6
2016-05-19T06:46:52.729Z,14.64
2016-05-19T06:47:52.857Z,14.56
2016-05-19T06:48:52.828Z,14.57
2016-05-19T06:49:52.517Z,14.69
2016-05-19T06:50:52.802Z,14.69
2016-05-19T06:51:52.773Z,14.84
2016-05-19T06:52:52.589Z,14.9
2016-05-19T06:53:52.967Z,14.94
2016-05-19T06:54:52.703Z,14.98
2016-05-19T06:55:52.691Z,15.01
2016-05-19T06:56:52.662Z,15.01
2016-05-19T06:57:52.650Z,15.06
2016-05-19T06:58:52.479Z,15.12
2016-05-19T06:59:52.452Z,15.21
2016-05-19T07:00:52.594Z,15.33
2016-05-19T07:01:52.394Z,15.41
2016-05-19T07:02:52.396Z,15.43
2016-05-19T07:03:52.524Z,15.42
2016-05-19T07:04:52.496Z,15.54
2016-05-19T07:05:52.483Z,15.81
2016-05-19T07:06:52.485Z,16.58
2016-05-19T07:07:52.473Z,16.9
2016-05-19T07:08:52.788Z,16.93
2016-05-19T07:09:52.400Z,16.75
2016-05-19T07:10:52.387Z,16.86
2016-05-19T07:11:52.359Z,16.86
2016-05-19T07:12:52.329Z,16.92
2016-05-19T07:13:52.317Z,16.77
2016-05-19T07:14:52.304Z,16.8
2016-05-19T07:15:52.306Z,16.9
2016-05-19T07:16:52.262Z,16.83
2016-05-19T07:17:52.234Z,16.83
2016-05-19T07:18:52.221Z,16.81
2016-05-19T07:19:52.208Z,16.73
2016-05-19T07:20:52.195Z,16.83
2016-05-19T07:21:52.167Z,16.78
2016-05-19T07:22:52.138Z,16.95
2016-05-19T07:23:52.125Z,17.06
2016-05-19T07:24:52.112Z,17.13
2016-05-19T07:25:52.100Z,17.11
2016-05-19T07:26:51.914Z,17.07
2016-05-19T07:27:52.058Z,17.13
2016-05-19T07:28:52.030Z,17.32
2016-05-19T07:29:52.033Z,17.55
2016-05-19T07:30:52.019Z,17.28
2016-05-19T07:31:51.991Z,17.22
2016-05-19T07:32:51.821Z,17.23
2016-05-19T07:33:51.777Z,17.36
2016-05-19T07:34:51.936Z,17.35
2016-05-19T07:35:51.908Z,17.35
2016-05-19T07:36:51.894Z,17.3
2016-05-19T07:37:51.710Z,17.32
2016-05-19T07:38:52.196Z,17.48
2016-05-19T07:39:51.840Z,17.63
2016-05-19T07:40:51.655Z,17.55
2016-05-19T07:41:51.798Z,17.59
2016-05-19T07:42:51.770Z,17.66
2016-05-19T07:43:51.757Z,17.81
2016-05-19T07:44:51.744Z,17.88
2016-05-19T07:45:51.732Z,18.25
2016-05-19T07:46:51.703Z,18.47
2016-05-19T07:47:51.689Z,18.67
2016-05-19T07:48:51.662Z,18.64
2016-05-19T07:49:51.649Z,18.95
2016-05-19T07:50:51.636Z,18.91
2016-05-19T07:51:51.623Z,19.11
2016-05-19T07:52:51.594Z,19.02
2016-05-19T07:53:51.425Z,18.8
2016-05-19T07:54:51.583Z,18.91
2016-05-19T07:55:51.570Z,18.97
2016-05-19T07:56:51.542Z,19.46
2016-05-19T07:57:51.498Z,19.55
2016-05-19T07:58:51.500Z,19.57
2016-05-19T07:59:51.488Z,19.28
2016-05-19T08:00:51.459Z,19.2
2016-05-19T08:01:51.461Z,18.97
2016-05-19T08:02:51.433Z,18.9
2016-05-19T08:03:51.420Z,18.97
2016-05-19T08:04:51.391Z,18.7
2016-05-19T08:05:51.222Z,18.64
2016-05-19T08:06:51.366Z,18.62
2016-05-19T08:07:51.353Z,18.72
2016-05-19T08:08:51.341Z,18.67
2016-05-19T08:09:51.171Z,18.65
2016-05-19T08:10:51.299Z,18.68
2016-05-19T08:11:51.301Z,18.72
2016-05-19T08:12:51.273Z,18.68
2016-05-19T08:13:51.088Z,18.65
2016-05-19T08:14:51.262Z,18.72
2016-05-19T08:15:51.218Z,18.7
2016-05-19T08:16:51.190Z,18.61
2016-05-19T08:17:51.177Z,18.52
2016-05-19T08:18:51.164Z,18.54
2016-05-19T08:19:51.151Z,18.64
2016-05-19T08:20:51.122Z,18.8
2016-05-19T08:21:51.109Z,19.02
2016-05-19T08:22:51.097Z,19.15
2016-05-19T08:23:50.942Z,19.18
2016-05-19T08:24:51.070Z,19.23
2016-05-19T08:25:51.041Z,19.05
2016-05-19T08:26:51.013Z,18.83
2016-05-19T08:27:50.860Z,18.65
2016-05-19T08:28:50.831Z,18.68
2016-05-19T08:29:50.662Z,18.72
2016-05-19T08:30:50.961Z,18.58
2016-05-19T08:31:50.792Z,18.65
2016-05-19T08:32:50.920Z,18.65
2016-05-19T08:33:50.891Z,18.76
2016-05-19T08:34:50.880Z,18.58
2016-05-19T08:35:50.569Z,18.7
2016-05-19T08:36:50.869Z,18.4
2016-05-19T08:37:50.840Z,18.47
2016-05-19T08:38:50.890Z,18.33
2016-05-19T08:39:50.642Z,18.18
2016-05-19T08:40:50.785Z,18.18
2016-05-19T08:41:50.757Z,18.13
2016-05-19T08:42:50.744Z,18.25
2016-05-19T08:43:50.747Z,18.25
2016-05-19T08:44:50.702Z,18.25
2016-05-19T08:45:50.377Z,18.17
2016-05-19T08:46:50.676Z,18.37
2016-05-19T08:47:50.664Z,18.33
2016-05-19T08:48:50.634Z,18.44
2016-05-19T08:49:50.622Z,18.4
2016-05-19T08:50:50.593Z,18.49
2016-05-19T08:51:50.596Z,18.36
2016-05-19T08:52:50.567Z,18.46
2016-05-19T08:53:51.101Z,18.47
2016-05-19T08:54:50.604Z,18.62
2016-05-19T08:55:50.514Z,18.5
2016-05-19T08:56:50.500Z,18.49
2016-05-19T08:57:50.487Z,18.65
2016-05-19T08:58:50.458Z,18.68
2016-05-19T08:59:50.446Z,18.87
2016-05-19T09:00:50.417Z,18.92
2016-05-19T09:01:50.420Z,18.94
2016-05-19T09:02:50.392Z,18.91
2016-05-19T09:03:50.378Z,18.9
2016-05-19T09:04:50.350Z,18.84
2016-05-19T09:05:50.338Z,18.98
2016-05-19T09:06:50.324Z,19.05
2016-05-19T09:07:50.310Z,19.08
2016-05-19T09:08:50.360Z,19.2
2016-05-19T09:09:50.285Z,19.29
2016-05-19T09:10:50.257Z,19.35
2016-05-19T09:11:50.228Z,19.25
2016-05-19T09:12:50.216Z,19.17
2016-05-19T09:13:50.202Z,19.23
2016-05-19T09:14:50.204Z,19.4
2016-05-19T09:15:50.177Z,19.5
2016-05-19T09:16:50.163Z,19.5
2016-05-19T09:17:50.135Z,19.72
2016-05-19T09:18:50.122Z,19.8
2016-05-19T09:19:49.969Z,19.94
2016-05-19T09:20:50.096Z,19.97
2016-05-19T09:21:50.067Z,19.94
2016-05-19T09:22:50.039Z,19.91
2016-05-19T09:23:49.901Z,20.31
2016-05-19T09:24:50.045Z,20.28
2016-05-19T09:25:50.000Z,20.42
2016-05-19T09:26:49.987Z,20.53
2016-05-19T09:27:49.974Z,20.53
2016-05-19T09:28:49.977Z,20.69
2016-05-19T09:29:49.948Z,20.79
2016-05-19T09:30:49.764Z,20.84
2016-05-19T09:31:49.939Z,20.99
2016-05-19T09:32:49.753Z,21.19
2016-05-19T09:33:49.881Z,20.95
2016-05-19T09:34:49.868Z,21.29
2016-05-19T09:35:49.855Z,21.45
2016-05-19T09:36:49.826Z,21.34
2016-05-19T09:37:49.814Z,21.21
2016-05-19T09:38:49.489Z,21.2
2016-05-19T09:39:49.616Z,21.13
2016-05-19T09:40:49.775Z,21.35
2016-05-19T09:41:49.746Z,21.46
2016-05-19T09:42:49.733Z,21.26
2016-05-19T09:43:49.721Z,21.3
2016-05-19T09:44:49.723Z,21.39
2016-05-19T09:45:49.710Z,21.38
2016-05-19T09:46:49.369Z,21.29
2016-05-19T09:47:49.669Z,21.41
2016-05-19T09:48:49.656Z,21.66
2016-05-19T09:49:49.643Z,21.63
2016-05-19T09:50:49.615Z,21.61
2016-05-19T09:51:49.617Z,21.59
2016-05-19T09:52:49.589Z,21.35
2016-05-19T09:53:49.607Z,21.75
2016-05-19T09:54:49.422Z,21.61
2016-05-19T09:55:49.550Z,21.56
2016-05-19T09:56:49.537Z,21.57
2016-05-19T09:57:49.523Z,21.83
2016-05-19T09:58:49.511Z,21.99
2016-05-19T09:59:49.498Z,22.28
2016-05-19T10:00:49.469Z,22.34
2016-05-19T10:01:49.331Z,22.09
2016-05-19T10:02:49.444Z,21.82
2016-05-19T10:03:49.431Z,21.76
2016-05-19T10:04:49.417Z,21.82
2016-05-19T10:05:49.405Z,21.75
2016-05-19T10:06:49.392Z,21.81
2016-05-19T10:07:49.380Z,22.14
2016-05-19T10:08:49.350Z,21.98
2016-05-19T10:09:49.338Z,21.94
2016-05-19T10:10:49.324Z,21.82
2016-05-19T10:11:49.155Z,21.88
2016-05-19T10:12:49.221Z,22.04
2016-05-19T10:13:49.286Z,21.9
2016-05-19T10:14:49.273Z,21.88
2016-05-19T10:15:49.260Z,22.04
2016-05-19T10:16:49.075Z,22.2
2016-05-19T10:17:49.062Z,22.27
2016-05-19T10:18:49.221Z,22.43
2016-05-19T10:19:49.193Z,22.07
2016-05-19T10:20:49.180Z,21.81
2016-05-19T10:21:49.167Z,22.04
2016-05-19T10:22:49.154Z,21.78
2016-05-19T10:23:49.172Z,21.69
2016-05-19T10:24:48.956Z,21.83
2016-05-19T10:25:48.943Z,21.79
2016-05-19T10:26:49.087Z,21.71
2016-05-19T10:27:49.089Z,21.57
2016-05-19T10:28:49.061Z,21.57
2016-05-19T10:29:49.064Z,21.57
2016-05-19T10:30:49.034Z,21.6
2016-05-19T10:31:48.865Z,21.85
2016-05-19T10:32:49.009Z,22.09
2016-05-19T10:33:48.981Z,21.98
2016-05-19T10:34:48.967Z,22.19
2016-05-19T10:35:48.955Z,22.34
2016-05-19T10:36:48.941Z,22.53
2016-05-19T10:37:48.944Z,22.39
2016-05-19T10:38:48.916Z,22.17
2016-05-19T10:39:48.903Z,22.17
2016-05-19T10:40:48.889Z,22.29
2016-05-19T10:41:48.877Z,22.17
2016-05-19T10:42:48.864Z,22.14
2016-05-19T10:43:48.835Z,22.12
2016-05-19T10:44:48.838Z,22.06
2016-05-19T10:45:48.810Z,22.04
2016-05-19T10:46:48.813Z,21.91
2016-05-19T10:47:48.768Z,21.78
2016-05-19T10:48:48.771Z,21.81
2016-05-19T10:49:48.773Z,21.72
2016-05-19T10:50:48.588Z,21.2
2016-05-19T10:51:48.716Z,21.41
2016-05-19T10:52:48.719Z,21.59
2016-05-19T10:53:49.424Z,21.67
2016-05-19T10:54:48.677Z,21.36
2016-05-19T10:55:48.665Z,21.46
2016-05-19T10:56:48.339Z,21.16
2016-05-19T10:57:48.638Z,20.98
2016-05-19T10:58:48.626Z,20.93
2016-05-19T10:59:48.598Z,20.99
2016-05-19T11:00:48.584Z,20.89
2016-05-19T11:01:48.415Z,20.91
2016-05-19T11:02:48.558Z,20.95
2016-05-19T11:03:48.545Z,20.74
2016-05-19T11:04:48.516Z,20.72
2016-05-19T11:05:48.503Z,20.81
2016-05-19T11:06:48.334Z,20.77
2016-05-19T11:07:48.478Z,20.8
2016-05-19T11:08:48.950Z,20.77
2016-05-19T11:09:48.452Z,20.62
2016-05-19T11:10:48.423Z,20.54
2016-05-19T11:11:48.410Z,20.41
2016-05-19T11:12:48.414Z,20.54
2016-05-19T11:13:48.228Z,20.68
2016-05-19T11:14:48.356Z,20.51
2016-05-19T11:15:48.358Z,20.5
2016-05-19T11:16:48.330Z,20.62
2016-05-19T11:17:48.551Z,20.84
2016-05-19T11:18:48.148Z,20.89
2016-05-19T11:19:48.291Z,20.81
2016-05-19T11:20:48.122Z,20.66
2016-05-19T11:21:48.093Z,20.71
2016-05-19T11:22:48.237Z,20.76
2016-05-19T11:23:48.084Z,20.8
2016-05-19T11:24:48.227Z,20.76
2016-05-19T11:25:48.198Z,21.04
2016-05-19T11:26:48.060Z,21.26
2016-05-19T11:27:48.157Z,21.16
2016-05-19T11:28:48.035Z,21.11
2016-05-19T11:29:48.146Z,21.02
2016-05-19T11:30:48.134Z,20.8
2016-05-19T11:31:47.964Z,20.76
2016-05-19T11:32:48.092Z,20.76
2016-05-19T11:33:48.141Z,20.79
2016-05-19T11:34:48.081Z,20.74
2016-05-19T11:35:48.069Z,21.04
2016-05-19T11:36:48.040Z,20.91
2016-05-19T11:37:47.855Z,20.84
2016-05-19T11:38:48.155Z,21.14
2016-05-19T11:39:47.969Z,21.11
2016-05-19T11:40:47.972Z,21.3
2016-05-19T11:41:47.945Z,21.41
2016-05-19T11:42:47.931Z,21.59
2016-05-19T11:43:47.918Z,21.74
2016-05-19T11:44:47.983Z,21.6
2016-05-19T11:45:47.893Z,21.42
2016-05-19T11:46:47.762Z,21.59
2016-05-19T11:47:47.929Z,21.83
2016-05-19T11:48:47.956Z,21.79
2016-05-19T11:49:48.016Z,21.57
2016-05-19T11:50:47.855Z,21.39
2016-05-19T11:51:47.859Z,21.24
2016-05-19T11:52:48.017Z,21.21
2016-05-19T11:53:48.362Z,21.26
2016-05-19T11:54:47.847Z,21.08
2016-05-19T11:55:48.021Z,21.14
2016-05-19T11:56:47.983Z,21.35
2016-05-19T11:57:47.991Z,21.42
2016-05-19T11:58:47.983Z,21.54
2016-05-19T11:59:47.820Z,21.38
2016-05-19T12:00:47.969Z,21.44
2016-05-19T12:01:47.958Z,21.42
2016-05-19T12:02:47.931Z,21.26
2016-05-19T12:03:47.915Z,21.14
2016-05-19T12:04:47.904Z,21.17
2016-05-19T12:05:51.601Z,20.96
2016-05-19T12:06:47.945Z,21.34
2016-05-19T12:07:47.870Z,21.59
2016-05-19T12:08:50.361Z,21.57
2016-05-19T12:09:47.830Z,21.81
2016-05-19T12:10:47.927Z,21.85
2016-05-19T12:11:50.309Z,21.82
2016-05-19T12:12:47.949Z,21.57
2016-05-19T12:13:47.781Z,21.59
2016-05-19T12:14:49.177Z,21.59
2016-05-19T12:15:49.462Z,21.45
2016-05-19T12:16:47.775Z,21.38
2016-05-19T12:17:47.605Z,21.46
2016-05-19T12:18:47.717Z,21.32
2016-05-19T12:19:47.549Z,21.39
2016-05-19T12:20:47.519Z,21.61
2016-05-19T12:21:47.662Z,21.36
2016-05-19T12:22:47.649Z,21.34
2016-05-19T12:23:48.043Z,21.5
2016-05-19T12:24:47.608Z,21.34
2016-05-19T12:25:47.595Z,21.34
2016-05-19T12:26:47.582Z,21.46
2016-05-19T12:27:50.026Z,21.57
2016-05-19T12:28:47.541Z,21.44
2016-05-19T12:29:48.403Z,21.61
2016-05-19T12:30:50.909Z,21.27
2016-05-19T12:31:47.518Z,20.93
2016-05-19T12:32:47.537Z,20.95
2016-05-19T12:33:47.476Z,21.13
2016-05-19T12:34:47.464Z,21.02
2016-05-19T12:35:47.450Z,20.8
2016-05-19T12:36:47.453Z,20.66
2016-05-19T12:37:47.393Z,20.65
2016-05-19T12:38:48.084Z,20.68
2016-05-19T12:39:47.398Z,20.74
2016-05-19T12:40:47.198Z,20.68
2016-05-19T12:41:47.358Z,20.74
2016-05-19T12:42:47.329Z,20.8
2016-05-19T12:43:50.444Z,20.81
2016-05-19T12:44:47.287Z,21.04
2016-05-19T12:45:47.321Z,20.99
2016-05-19T12:46:49.042Z,21.04
2016-05-19T12:47:47.249Z,20.8
2016-05-19T12:48:47.110Z,20.77
2016-05-19T12:49:47.316Z,20.79
2016-05-19T12:50:47.194Z,20.66
2016-05-19T12:51:47.025Z,20.58
2016-05-19T12:52:47.168Z,20.76
2016-05-19T12:53:47.593Z,20.79
2016-05-19T12:54:47.143Z,21.01